createdAt,value
2022-12-18T00:00:27.983Z,37.90
2022-12-18T00:03:01.795Z,38.00
2022-12-18T00:05:34.585Z,38.30
2022-12-18T00:08:09.554Z,38.50
2022-12-18T00:10:42.602Z,38.50
2022-12-18T00:13:13.039Z,38.60
2022-12-18T00:15:44.383Z,38.60
2022-12-18T00:18:21.017Z,38.60
2022-12-18T00:20:58.617Z,38.60
2022-12-18T00:23:28.945Z,38.60
2022-12-18T00:26:04.342Z,38.80
2022-12-18T00:28:36.779Z,38.60
2022-12-18T00:31:08.868Z,38.50
2022-12-18T00:33:44.180Z,38.30
2022-12-18T00:36:18.408Z,38.00
2022-12-18T00:38:50.044Z,38.00
2022-12-18T00:41:35.239Z,38.00
2022-12-18T00:44:10.510Z,37.90
2022-12-18T00:46:40.951Z,37.60
2022-12-18T00:49:15.816Z,38.00
2022-12-18T00:51:45.436Z,38.20
2022-12-18T00:54:17.778Z,38.20
2022-12-18T00:56:50.214Z,38.20
2022-12-18T00:59:21.179Z,37.90
2022-12-18T01:01:52.654Z,37.90
2022-12-18T01:04:23.849Z,37.90
2022-12-18T01:06:55.742Z,38.00
2022-12-18T01:09:24.476Z,37.90
2022-12-18T01:11:57.001Z,37.80
2022-12-18T01:14:27.531Z,37.60
2022-12-18T01:16:57.201Z,37.40
2022-12-18T01:19:30.428Z,37.30
2022-12-18T01:22:01.461Z,37.30
2022-12-18T01:24:36.986Z,37.40
2022-12-18T01:27:06.496Z,37.50
2022-12-18T01:29:35.938Z,37.60
2022-12-18T01:32:07.273Z,37.40
2022-12-18T01:34:39.718Z,37.70
2022-12-18T01:37:10.784Z,37.70
2022-12-18T01:39:41.968Z,37.80
2022-12-18T01:42:17.049Z,37.80
2022-12-18T01:45:08.775Z,37.70
2022-12-18T01:47:47.284Z,37.80
2022-12-18T01:50:23.925Z,37.90
2022-12-18T01:52:58.307Z,38.10
2022-12-18T01:55:34.476Z,38.30
2022-12-18T01:58:04.880Z,38.30
2022-12-18T02:00:34.710Z,38.00
2022-12-18T02:03:06.291Z,38.40
2022-12-18T02:05:49.657Z,38.50
2022-12-18T02:08:32.276Z,38.80
2022-12-18T02:11:13.929Z,39.40
2022-12-18T02:13:58.662Z,39.40
2022-12-18T02:16:42.539Z,39.50
2022-12-18T02:19:50.467Z,39.30
2022-12-18T02:22:38.735Z,38.80
2022-12-18T02:25:26.969Z,39.10
2022-12-18T02:28:07.468Z,39.60
2022-12-18T02:30:42.021Z,39.60
2022-12-18T02:33:14.847Z,40.20
2022-12-18T02:35:47.910Z,40.50
2022-12-18T02:38:22.286Z,40.90
2022-12-18T02:40:57.058Z,41.30
2022-12-18T02:43:30.413Z,41.60
2022-12-18T02:46:03.638Z,41.70
2022-12-18T02:48:36.800Z,41.80
2022-12-18T02:51:21.137Z,41.80
2022-12-18T02:54:01.103Z,41.80
2022-12-18T02:56:43.632Z,41.80
2022-12-18T02:59:23.679Z,42.20
2022-12-18T03:02:01.916Z,41.90
2022-12-18T03:04:40.743Z,41.90
2022-12-18T03:07:19.089Z,42.10
2022-12-18T03:09:55.107Z,42.30
2022-12-18T03:12:37.180Z,42.50
2022-12-18T03:15:18.649Z,42.40
2022-12-18T03:17:55.422Z,42.90
2022-12-18T03:20:29.184Z,43.00
2022-12-18T03:23:08.008Z,43.00
2022-12-18T03:25:46.820Z,43.00
2022-12-18T03:28:24.140Z,43.20
2022-12-18T03:31:07.119Z,43.20
2022-12-18T03:33:45.134Z,43.40
2022-12-18T03:36:14.996Z,43.90
2022-12-18T03:38:46.644Z,43.90
2022-12-18T03:41:30.458Z,43.90
2022-12-18T03:44:12.103Z,43.80
2022-12-18T03:46:52.812Z,44.10
2022-12-18T03:49:35.170Z,44.10
2022-12-18T03:52:09.650Z,43.90
2022-12-18T03:54:42.596Z,43.80
2022-12-18T03:57:22.087Z,44.10
2022-12-18T03:59:58.469Z,45.30
2022-12-18T04:02:30.012Z,44.80
2022-12-18T04:05:05.631Z,45.30
2022-12-18T04:07:37.607Z,44.20
2022-12-18T04:10:15.335Z,44.10
2022-12-18T04:12:45.464Z,44.70
2022-12-18T04:15:16.584Z,45.00
2022-12-18T04:17:52.676Z,45.00
2022-12-18T04:20:23.003Z,44.70
2022-12-18T04:22:53.236Z,44.40
2022-12-18T04:25:23.968Z,44.40
2022-12-18T04:27:53.251Z,44.40
2022-12-18T04:30:22.721Z,44.30
2022-12-18T04:32:57.490Z,44.00
2022-12-18T04:35:28.368Z,43.50
2022-12-18T04:38:09.027Z,43.70
2022-12-18T04:40:38.365Z,44.10
2022-12-18T04:43:10.006Z,44.10
2022-12-18T04:45:39.406Z,44.00
2022-12-18T04:48:11.945Z,43.70
2022-12-18T04:50:41.880Z,43.50
2022-12-18T04:53:13.980Z,43.80
2022-12-18T04:55:43.541Z,43.70
2022-12-18T04:58:13.678Z,43.80
2022-12-18T05:00:43.913Z,43.90
2022-12-18T05:03:18.050Z,43.80
2022-12-18T05:05:47.491Z,43.70
2022-12-18T05:08:16.908Z,44.40
2022-12-18T05:10:50.779Z,44.80
2022-12-18T05:13:25.081Z,44.80
2022-12-18T05:15:55.514Z,44.50
2022-12-18T05:18:26.807Z,44.70
2022-12-18T05:20:57.899Z,44.70
2022-12-18T05:23:28.704Z,44.90
2022-12-18T05:26:03.783Z,44.80
2022-12-18T05:28:37.212Z,44.80
2022-12-18T05:31:17.316Z,44.80
2022-12-18T05:33:49.578Z,44.80
2022-12-18T05:36:19.579Z,44.90
2022-12-18T05:38:48.893Z,44.80
2022-12-18T05:41:20.499Z,44.80
2022-12-18T05:43:57.805Z,44.70
2022-12-18T05:46:28.083Z,44.90
2022-12-18T05:49:02.526Z,45.60
2022-12-18T05:51:33.206Z,46.20
2022-12-18T05:54:03.112Z,46.10
2022-12-18T05:56:33.984Z,46.60
2022-12-18T05:59:03.357Z,46.80
2022-12-18T06:01:33.092Z,47.00
2022-12-18T06:04:04.776Z,47.20
2022-12-18T06:06:35.906Z,47.10
2022-12-18T06:09:10.167Z,47.00
2022-12-18T06:11:42.665Z,47.00
2022-12-18T06:14:13.848Z,47.00
2022-12-18T06:16:43.636Z,46.80
2022-12-18T06:19:22.251Z,46.40
2022-12-18T06:21:52.899Z,45.90
2022-12-18T06:24:23.572Z,45.50
2022-12-18T06:26:55.438Z,45.40
2022-12-18T06:29:26.386Z,45.60
2022-12-18T06:31:58.004Z,45.30
2022-12-18T06:34:32.192Z,45.20
2022-12-18T06:37:04.356Z,44.90
2022-12-18T06:39:35.745Z,44.80
2022-12-18T06:42:11.523Z,44.50
2022-12-18T06:44:42.504Z,44.60
2022-12-18T06:47:12.108Z,44.60
2022-12-18T06:49:43.577Z,44.50
2022-12-18T06:52:13.558Z,44.80
2022-12-18T06:54:44.107Z,44.60
2022-12-18T06:57:13.971Z,44.90
2022-12-18T06:59:45.520Z,45.20
2022-12-18T07:02:15.800Z,46.10
2022-12-18T07:04:47.227Z,45.50
2022-12-18T07:07:18.450Z,45.70
2022-12-18T07:09:50.260Z,45.90
2022-12-18T07:12:19.682Z,45.80
2022-12-18T07:14:49.069Z,45.70
2022-12-18T07:17:20.608Z,45.20
2022-12-18T07:19:51.753Z,44.70
2022-12-18T07:22:22.665Z,44.40
2022-12-18T07:24:52.401Z,44.30
2022-12-18T07:27:24.411Z,45.20
2022-12-18T07:29:55.063Z,45.90
2022-12-18T07:32:27.168Z,46.00
2022-12-18T07:34:59.524Z,45.80
2022-12-18T07:37:29.338Z,46.10
2022-12-18T07:40:00.682Z,46.20
2022-12-18T07:42:33.314Z,45.90
2022-12-18T07:45:07.186Z,46.20
2022-12-18T07:47:38.531Z,46.10
2022-12-18T07:50:12.179Z,45.90
2022-12-18T07:52:43.699Z,45.30
2022-12-18T07:55:14.573Z,45.20
2022-12-18T07:57:56.526Z,44.70
2022-12-18T08:00:33.546Z,44.00
2022-12-18T08:03:02.503Z,43.70
2022-12-18T08:05:35.568Z,43.50
2022-12-18T08:08:05.212Z,43.40
2022-12-18T08:10:34.778Z,43.60
2022-12-18T08:13:05.369Z,44.40
2022-12-18T08:15:37.749Z,44.60
2022-12-18T08:18:12.701Z,44.00
2022-12-18T08:20:45.233Z,43.90
2022-12-18T08:23:18.590Z,43.90
2022-12-18T08:25:48.099Z,44.20
2022-12-18T08:28:18.457Z,43.90
2022-12-18T08:30:48.030Z,43.60
2022-12-18T08:33:20.043Z,43.20
2022-12-18T08:35:50.532Z,43.60
2022-12-18T08:38:19.144Z,44.20
2022-12-18T08:40:48.811Z,44.20
2022-12-18T08:43:34.843Z,44.00
2022-12-18T08:46:03.737Z,43.80
2022-12-18T08:48:32.266Z,44.10
2022-12-18T08:51:02.645Z,44.10
2022-12-18T08:53:35.486Z,44.30
2022-12-18T08:56:04.461Z,44.20
2022-12-18T08:58:33.322Z,43.90
2022-12-18T09:01:04.163Z,43.00
2022-12-18T09:03:33.639Z,43.10
2022-12-18T09:06:04.036Z,43.20
2022-12-18T09:08:32.952Z,43.10
2022-12-18T09:11:01.577Z,42.90
2022-12-18T09:13:30.618Z,43.00
2022-12-18T09:15:59.383Z,42.90
2022-12-18T09:18:28.183Z,42.80
2022-12-18T09:20:56.832Z,43.30
2022-12-18T09:23:27.052Z,42.80
2022-12-18T09:26:01.714Z,42.70
2022-12-18T09:28:30.464Z,42.90
2022-12-18T09:30:59.208Z,43.20
2022-12-18T09:33:27.940Z,43.00
2022-12-18T09:35:56.782Z,42.70
2022-12-18T09:38:26.972Z,41.70
2022-12-18T09:41:01.981Z,42.30
2022-12-18T09:43:52.199Z,42.50
2022-12-18T09:46:29.739Z,42.30
2022-12-18T09:49:04.392Z,42.60
2022-12-18T09:51:40.633Z,42.30
2022-12-18T09:54:22.790Z,42.20
2022-12-18T09:56:51.682Z,42.20
2022-12-18T09:59:27.437Z,42.20
2022-12-18T10:01:57.333Z,42.00
2022-12-18T10:04:29.012Z,41.90
2022-12-18T10:07:11.111Z,41.70
2022-12-18T10:09:53.018Z,41.10
2022-12-18T10:12:29.855Z,41.30
2022-12-18T10:15:09.370Z,40.80
2022-12-18T10:17:48.367Z,41.10
2022-12-18T10:20:26.861Z,41.20
2022-12-18T10:23:06.493Z,41.40
2022-12-18T10:25:52.828Z,41.30
2022-12-18T10:28:23.676Z,41.60
2022-12-18T10:30:52.482Z,42.00
2022-12-18T10:33:24.596Z,42.30
2022-12-18T10:35:53.958Z,41.80
2022-12-18T10:38:29.224Z,42.00
2022-12-18T10:41:03.421Z,41.90
2022-12-18T10:43:34.403Z,41.20
2022-12-18T10:46:22.861Z,40.70
2022-12-18T10:48:57.939Z,40.60
2022-12-18T10:51:31.921Z,40.10
2022-12-18T10:54:04.413Z,40.40
2022-12-18T10:56:38.864Z,39.80
2022-12-18T10:59:10.645Z,40.00
2022-12-18T11:01:52.804Z,39.50
2022-12-18T11:04:24.678Z,39.00
2022-12-18T11:07:11.939Z,38.80
2022-12-18T11:09:42.709Z,38.70
2022-12-18T11:12:22.253Z,38.80
2022-12-18T11:14:54.633Z,39.30
2022-12-18T11:17:30.264Z,39.50
2022-12-18T11:20:01.771Z,39.60
2022-12-18T11:22:33.695Z,40.10
2022-12-18T11:25:32.157Z,40.80
2022-12-18T11:28:01.471Z,41.00
2022-12-18T11:30:33.485Z,41.50
2022-12-18T11:33:07.660Z,41.50
2022-12-18T11:35:51.176Z,41.30
2022-12-18T11:38:26.341Z,40.20
2022-12-18T11:41:02.398Z,39.80
2022-12-18T11:43:40.367Z,40.20
2022-12-18T11:46:19.861Z,39.00
2022-12-18T11:49:00.816Z,38.90
2022-12-18T11:51:37.281Z,39.20
2022-12-18T11:54:16.406Z,38.30
2022-12-18T11:56:51.392Z,38.10
2022-12-18T11:59:35.476Z,38.10
2022-12-18T12:02:31.073Z,38.40
2022-12-18T12:05:22.334Z,38.60
2022-12-18T12:07:59.922Z,38.80
2022-12-18T12:10:44.750Z,39.30
2022-12-18T12:13:35.332Z,39.80
2022-12-18T12:16:19.407Z,39.70
2022-12-18T12:19:04.081Z,39.40
2022-12-18T12:21:42.712Z,39.40
2022-12-18T12:24:34.874Z,39.50
2022-12-18T12:27:19.495Z,39.30
2022-12-18T12:30:03.931Z,39.60
2022-12-18T12:33:01.878Z,39.90
2022-12-18T12:35:46.480Z,39.80
2022-12-18T12:38:20.018Z,39.50
2022-12-18T12:41:02.520Z,39.30
2022-12-18T12:43:44.649Z,39.30
2022-12-18T12:46:23.941Z,39.40
2022-12-18T12:49:01.488Z,39.20
2022-12-18T12:51:35.954Z,38.80
2022-12-18T12:54:14.154Z,38.50
2022-12-18T12:56:54.046Z,38.10
2022-12-18T12:59:33.705Z,38.50
2022-12-18T13:02:17.952Z,39.30
2022-12-18T13:04:55.390Z,39.40
2022-12-18T13:07:34.834Z,39.30
2022-12-18T13:10:35.569Z,39.70
2022-12-18T13:13:06.638Z,40.20
2022-12-18T13:15:42.614Z,39.80
2022-12-18T13:18:21.809Z,39.70
2022-12-18T13:21:03.955Z,40.10
2022-12-18T13:23:37.516Z,40.00
2022-12-18T13:26:36.915Z,39.90
2022-12-18T13:29:07.202Z,39.70
2022-12-18T13:32:04.157Z,39.20
2022-12-18T13:34:33.956Z,39.40
2022-12-18T13:37:43.958Z,39.30
2022-12-18T13:41:01.525Z,39.40
2022-12-18T13:43:41.868Z,38.80
2022-12-18T13:46:31.095Z,38.30
2022-12-18T13:49:05.668Z,38.10
2022-12-18T13:51:37.146Z,38.20
2022-12-18T13:54:24.426Z,38.30
2022-12-18T13:56:53.329Z,38.40
2022-12-18T13:59:25.172Z,38.30
2022-12-18T14:01:58.335Z,38.70
2022-12-18T14:04:30.607Z,38.50
2022-12-18T14:07:05.062Z,37.90
2022-12-18T14:09:40.530Z,38.80
2022-12-18T14:12:35.296Z,39.20
2022-12-18T14:15:04.770Z,39.40
2022-12-18T14:17:34.436Z,40.10
2022-12-18T14:20:04.618Z,41.40
2022-12-18T14:22:33.716Z,41.90
2022-12-18T14:25:20.694Z,41.80
2022-12-18T14:27:53.313Z,41.80
2022-12-18T14:30:28.866Z,41.60
2022-12-18T14:33:11.662Z,41.60
2022-12-18T14:35:43.012Z,41.70
2022-12-18T14:38:25.195Z,42.20
2022-12-18T14:41:04.013Z,42.00
2022-12-18T14:43:37.363Z,41.80
2022-12-18T14:46:08.628Z,41.90
2022-12-18T14:48:43.593Z,42.10
2022-12-18T14:51:21.705Z,42.20
2022-12-18T14:53:57.121Z,42.20
2022-12-18T14:56:30.108Z,42.10
2022-12-18T14:59:02.020Z,42.20
2022-12-18T15:01:35.502Z,42.40
2022-12-18T15:04:07.472Z,42.70
2022-12-18T15:06:40.969Z,43.10
2022-12-18T15:09:25.825Z,43.10
2022-12-18T15:12:00.616Z,42.80
2022-12-18T15:14:37.645Z,42.80
2022-12-18T15:17:17.735Z,42.80
2022-12-18T15:19:49.104Z,42.70
2022-12-18T15:22:23.726Z,42.80
2022-12-18T15:24:53.804Z,42.80
2022-12-18T15:27:32.611Z,42.90
2022-12-18T15:30:26.488Z,43.10
2022-12-18T15:33:19.431Z,43.20
2022-12-18T15:35:47.862Z,42.80
2022-12-18T15:38:16.421Z,42.70
2022-12-18T15:40:44.982Z,42.40
2022-12-18T15:43:32.543Z,42.00
2022-12-18T15:46:01.144Z,41.80
2022-12-18T15:48:29.937Z,41.60
2022-12-18T15:51:00.203Z,41.80
2022-12-18T15:53:36.036Z,41.70
2022-12-18T15:56:22.239Z,41.90
2022-12-18T15:58:52.190Z,42.00
2022-12-18T16:01:21.585Z,42.00
2022-12-18T16:03:50.246Z,41.60
2022-12-18T16:06:18.780Z,41.60
2022-12-18T16:08:47.345Z,41.80
2022-12-18T16:11:39.029Z,41.70
2022-12-18T16:14:22.359Z,41.70
2022-12-18T16:16:53.629Z,42.20
2022-12-18T16:19:22.742Z,42.00
2022-12-18T16:21:54.068Z,42.10
2022-12-18T16:24:25.989Z,41.90
2022-12-18T16:26:55.669Z,41.90
2022-12-18T16:29:28.285Z,42.00
2022-12-18T16:31:57.285Z,41.90
2022-12-18T16:34:29.488Z,41.80
2022-12-18T16:37:05.317Z,41.80
2022-12-18T16:39:35.673Z,41.90
2022-12-18T16:42:06.039Z,41.70
2022-12-18T16:44:36.513Z,41.90
2022-12-18T16:47:06.415Z,42.00
2022-12-18T16:49:37.570Z,42.00
2022-12-18T16:52:06.988Z,42.30
2022-12-18T16:54:36.888Z,42.30
2022-12-18T16:57:06.221Z,42.20
2022-12-18T16:59:36.323Z,41.60
2022-12-18T17:02:04.986Z,42.10
2022-12-18T17:04:33.791Z,42.30
2022-12-18T17:07:02.387Z,42.00
2022-12-18T17:09:30.844Z,42.00
2022-12-18T17:12:03.950Z,41.40
2022-12-18T17:14:35.748Z,41.70
2022-12-18T17:17:20.849Z,41.40
2022-12-18T17:19:50.220Z,40.80
2022-12-18T17:22:19.201Z,40.80
2022-12-18T17:24:48.925Z,40.90
2022-12-18T17:27:18.119Z,40.80
2022-12-18T17:29:49.038Z,41.00
2022-12-18T17:32:18.172Z,41.40
2022-12-18T17:34:47.047Z,41.70
2022-12-18T17:37:16.208Z,42.50
2022-12-18T17:39:44.781Z,43.00
2022-12-18T17:42:15.255Z,43.40
2022-12-18T17:44:44.891Z,43.60
2022-12-18T17:47:15.561Z,43.30
2022-12-18T17:49:44.001Z,44.00
2022-12-18T17:52:12.985Z,44.20
2022-12-18T17:54:42.481Z,44.30
2022-12-18T17:57:11.464Z,43.90
2022-12-18T17:59:39.969Z,43.50
2022-12-18T18:02:11.894Z,43.00
2022-12-18T18:04:42.404Z,42.70
2022-12-18T18:07:10.883Z,41.80
2022-12-18T18:09:39.446Z,41.30
2022-12-18T18:12:25.540Z,40.90
2022-12-18T18:14:54.216Z,40.70
2022-12-18T18:17:22.962Z,40.80
2022-12-18T18:19:52.964Z,41.40
2022-12-18T18:22:21.623Z,41.70
2022-12-18T18:24:51.629Z,41.70
2022-12-18T18:27:20.102Z,41.80
2022-12-18T18:29:49.064Z,41.70
2022-12-18T18:32:18.043Z,41.50
2022-12-18T18:34:47.630Z,41.40
2022-12-18T18:37:19.165Z,41.70
2022-12-18T18:39:48.591Z,41.70
2022-12-18T18:42:18.167Z,41.90
2022-12-18T18:44:49.163Z,42.10
2022-12-18T18:47:21.536Z,41.70
2022-12-18T18:49:50.376Z,41.80
2022-12-18T18:52:20.522Z,41.70
2022-12-18T18:55:11.599Z,41.70
2022-12-18T18:57:39.277Z,41.90
2022-12-18T19:00:11.039Z,41.80
2022-12-18T19:02:40.160Z,41.80
2022-12-18T19:05:17.738Z,41.80
2022-12-18T19:07:48.184Z,41.70
2022-12-18T19:10:17.341Z,41.30
2022-12-18T19:13:03.280Z,41.50
2022-12-18T19:15:32.031Z,41.80
2022-12-18T19:18:00.660Z,41.70
2022-12-18T19:20:30.108Z,41.10
2022-12-18T19:23:00.595Z,41.00
2022-12-18T19:25:41.682Z,40.90
2022-12-18T19:28:22.177Z,41.00
2022-12-18T19:30:59.020Z,40.90
2022-12-18T19:33:45.398Z,40.70
2022-12-18T19:36:19.730Z,40.30
2022-12-18T19:38:51.800Z,40.30
2022-12-18T19:41:22.461Z,40.20
2022-12-18T19:43:53.341Z,40.20
2022-12-18T19:46:24.355Z,40.00
2022-12-18T19:48:53.747Z,40.00
2022-12-18T19:51:26.275Z,40.00
2022-12-18T19:53:59.810Z,39.80
2022-12-18T19:56:33.322Z,39.60
2022-12-18T19:59:02.726Z,39.60
2022-12-18T20:01:33.840Z,39.60
2022-12-18T20:04:02.737Z,39.60
2022-12-18T20:06:34.823Z,39.80
2022-12-18T20:09:08.170Z,39.40
2022-12-18T20:11:41.603Z,39.40
2022-12-18T20:14:11.505Z,39.50
2022-12-18T20:16:40.636Z,39.60
2022-12-18T20:19:11.160Z,39.90
2022-12-18T20:21:40.251Z,39.80
2022-12-18T20:24:11.234Z,39.90
2022-12-18T20:26:40.603Z,39.70
2022-12-18T20:29:09.422Z,39.70
2022-12-18T20:31:38.205Z,39.80
2022-12-18T20:34:07.228Z,39.80
2022-12-18T20:36:37.731Z,40.40
2022-12-18T20:39:09.843Z,41.10
2022-12-18T20:41:39.749Z,40.90
2022-12-18T20:44:23.271Z,41.10
2022-12-18T20:46:55.614Z,41.00
2022-12-18T20:49:25.132Z,40.80
2022-12-18T20:51:56.336Z,40.80
2022-12-18T20:54:28.596Z,40.50
2022-12-18T20:56:58.280Z,40.50
2022-12-18T20:59:27.024Z,40.60
2022-12-18T21:01:56.193Z,40.40
2022-12-18T21:04:25.510Z,40.60
2022-12-18T21:07:00.512Z,40.30
2022-12-18T21:09:37.154Z,40.30
2022-12-18T21:12:29.379Z,40.40
2022-12-18T21:15:01.714Z,40.30
2022-12-18T21:17:30.855Z,40.70
2022-12-18T21:20:03.433Z,41.10
2022-12-18T21:22:40.580Z,40.80
2022-12-18T21:25:11.448Z,40.30
2022-12-18T21:27:39.993Z,40.90
2022-12-18T21:30:10.440Z,41.10
2022-12-18T21:32:39.198Z,41.20
2022-12-18T21:35:08.750Z,41.00
2022-12-18T21:37:37.622Z,40.80
2022-12-18T21:40:08.065Z,40.90
2022-12-18T21:42:55.678Z,40.90
2022-12-18T21:45:24.244Z,41.00
2022-12-18T21:47:52.826Z,40.90
2022-12-18T21:50:21.501Z,40.90
2022-12-18T21:52:50.063Z,40.60
2022-12-18T21:55:18.879Z,40.50
2022-12-18T21:57:49.071Z,40.40
2022-12-18T22:00:19.780Z,40.10
2022-12-18T22:03:17.601Z,40.00
2022-12-18T22:05:38.245Z,39.80
2022-12-18T22:08:07.636Z,40.10
2022-12-18T22:10:36.791Z,40.30
2022-12-18T22:13:08.392Z,40.50
2022-12-18T22:15:37.294Z,40.50
2022-12-18T22:18:06.139Z,40.60
2022-12-18T22:20:35.033Z,40.60
2022-12-18T22:23:06.184Z,40.80
2022-12-18T22:25:38.069Z,40.60
2022-12-18T22:28:27.154Z,40.50
2022-12-18T22:30:59.128Z,40.30
2022-12-18T22:33:29.248Z,40.40
2022-12-18T22:35:58.054Z,40.50
2022-12-18T22:38:27.312Z,40.10
2022-12-18T22:40:56.843Z,40.70
2022-12-18T22:43:27.319Z,40.90
2022-12-18T22:45:56.022Z,40.70
2022-12-18T22:48:24.814Z,40.60
2022-12-18T22:50:54.160Z,40.20
2022-12-18T22:53:31.125Z,40.40
2022-12-18T22:56:02.833Z,40.60
2022-12-18T22:58:33.768Z,40.50
2022-12-18T23:01:02.640Z,40.20
2022-12-18T23:03:33.643Z,40.30
2022-12-18T23:06:08.305Z,40.10
2022-12-18T23:08:37.910Z,39.90
2022-12-18T23:11:08.536Z,40.60
2022-12-18T23:13:39.901Z,40.10
2022-12-18T23:16:12.371Z,40.10
2022-12-18T23:18:41.715Z,40.00
2022-12-18T23:21:16.825Z,39.80
2022-12-18T23:23:46.869Z,39.70
2022-12-18T23:26:20.009Z,39.50
2022-12-18T23:28:50.733Z,39.40
2022-12-18T23:31:22.142Z,39.40
2022-12-18T23:33:52.149Z,39.50
2022-12-18T23:36:22.021Z,39.70
2022-12-18T23:38:52.754Z,39.40
2022-12-18T23:41:25.080Z,39.40
2022-12-18T23:43:55.705Z,39.30
2022-12-18T23:46:27.517Z,40.10
2022-12-18T23:49:04.060Z,39.50
2022-12-18T23:51:35.701Z,39.60
2022-12-18T23:54:05.555Z,39.60
2022-12-18T23:56:35.840Z,39.40
2022-12-18T23:59:06.622Z,39.30
